sensor_id;sensor_type;location;lat;lon;timestamp;P1;durP1;ratioP1;P2;durP2;ratioP2
35576;SDS011;21680;52.400;16.920;2023-09-18T00:00:24;15.80;;;9.90;;
35576;SDS011;21680;52.400;16.920;2023-09-18T00:02:49;14.80;;;8.80;;
35576;SDS011;21680;52.400;16.920;2023-09-18T00:05:14;17.60;;;9.80;;
35576;SDS011;21680;52.400;16.920;2023-09-18T00:07:44;13.20;;;9.30;;
35576;SDS011;21680;52.400;16.920;2023-09-18T00:10:10;15.30;;;9.70;;
35576;SDS011;21680;52.400;16.920;2023-09-18T00:12:37;15.50;;;9.90;;
35576;SDS011;21680;52.400;16.920;2023-09-18T00:15:04;18.70;;;8.90;;
35576;SDS011;21680;52.400;16.920;2023-09-18T00:17:30;18.20;;;9.70;;
35576;SDS011;21680;52.400;16.920;2023-09-18T00:19:55;18.30;;;9.30;;
35576;SDS011;21680;52.400;16.920;2023-09-18T00:22:21;18.00;;;9.40;;
35576;SDS011;21680;52.400;16.920;2023-09-18T00:24:47;12.20;;;9.40;;
35576;SDS011;21680;52.400;16.920;2023-09-18T00:27:13;15.30;;;9.20;;
35576;SDS011;21680;52.400;16.920;2023-09-18T00:29:38;14.00;;;10.30;;
35576;SDS011;21680;52.400;16.920;2023-09-18T00:32:04;17.70;;;10.90;;
35576;SDS011;21680;52.400;16.920;2023-09-18T00:34:30;14.70;;;10.20;;
35576;SDS011;21680;52.400;16.920;2023-09-18T00:36:57;15.50;;;10.60;;
35576;SDS011;21680;52.400;16.920;2023-09-18T00:39:24;14.00;;;9.90;;
35576;SDS011;21680;52.400;16.920;2023-09-18T00:41:49;15.00;;;11.00;;
35576;SDS011;21680;52.400;16.920;2023-09-18T00:44:19;19.70;;;11.00;;
35576;SDS011;21680;52.400;16.920;2023-09-18T00:46:47;14.70;;;10.10;;
35576;SDS011;21680;52.400;16.920;2023-09-18T00:49:14;17.70;;;10.20;;
35576;SDS011;21680;52.400;16.920;2023-09-18T00:51:40;15.80;;;10.20;;
35576;SDS011;21680;52.400;16.920;2023-09-18T00:54:06;13.60;;;9.60;;
35576;SDS011;21680;52.400;16.920;2023-09-18T00:56:32;15.30;;;10.40;;
35576;SDS011;21680;52.400;16.920;2023-09-18T00:58:58;14.20;;;9.40;;
35576;SDS011;21680;52.400;16.920;2023-09-18T01:01:24;15.80;;;10.30;;
35576;SDS011;21680;52.400;16.920;2023-09-18T01:03:50;18.10;;;10.80;;
35576;SDS011;21680;52.400;16.920;2023-09-18T01:06:18;23.40;;;10.90;;
35576;SDS011;21680;52.400;16.920;2023-09-18T01:08:44;18.00;;;9.60;;
35576;SDS011;21680;52.400;16.920;2023-09-18T01:14:03;17.40;;;10.20;;
35576;SDS011;21680;52.400;16.920;2023-09-18T01:16:39;15.10;;;10.10;;
35576;SDS011;21680;52.400;16.920;2023-09-18T01:19:10;14.40;;;10.70;;
35576;SDS011;21680;52.400;16.920;2023-09-18T01:21:36;19.00;;;10.60;;
35576;SDS011;21680;52.400;16.920;2023-09-18T01:24:01;18.90;;;11.50;;
35576;SDS011;21680;52.400;16.920;2023-09-18T01:26:28;16.50;;;10.80;;
35576;SDS011;21680;52.400;16.920;2023-09-18T01:28:53;17.30;;;10.30;;
35576;SDS011;21680;52.400;16.920;2023-09-18T01:31:19;17.10;;;10.80;;
35576;SDS011;21680;52.400;16.920;2023-09-18T01:33:45;15.90;;;10.10;;
35576;SDS011;21680;52.400;16.920;2023-09-18T01:36:12;18.10;;;11.20;;
35576;SDS011;21680;52.400;16.920;2023-09-18T01:38:39;18.60;;;10.40;;
35576;SDS011;21680;52.400;16.920;2023-09-18T01:41:05;15.20;;;10.10;;
35576;SDS011;21680;52.400;16.920;2023-09-18T01:43:31;18.60;;;11.10;;
35576;SDS011;21680;52.400;16.920;2023-09-18T01:45:57;17.80;;;10.70;;
35576;SDS011;21680;52.400;16.920;2023-09-18T01:48:22;18.90;;;11.10;;
35576;SDS011;21680;52.400;16.920;2023-09-18T01:50:48;14.60;;;10.30;;
35576;SDS011;21680;52.400;16.920;2023-09-18T01:53:13;14.60;;;10.10;;
35576;SDS011;21680;52.400;16.920;2023-09-18T01:55:38;20.00;;;10.20;;
35576;SDS011;21680;52.400;16.920;2023-09-18T01:58:04;17.20;;;10.40;;
35576;SDS011;21680;52.400;16.920;2023-09-18T02:00:29;17.00;;;10.10;;
35576;SDS011;21680;52.400;16.920;2023-09-18T02:02:54;14.70;;;9.60;;
35576;SDS011;21680;52.400;16.920;2023-09-18T02:05:20;13.00;;;9.60;;
35576;SDS011;21680;52.400;16.920;2023-09-18T02:07:45;15.40;;;10.30;;
35576;SDS011;21680;52.400;16.920;2023-09-18T02:10:10;17.40;;;11.30;;
35576;SDS011;21680;52.400;16.920;2023-09-18T02:12:37;14.20;;;10.10;;
35576;SDS011;21680;52.400;16.920;2023-09-18T02:15:04;16.20;;;10.80;;
35576;SDS011;21680;52.400;16.920;2023-09-18T02:17:31;16.30;;;10.50;;
35576;SDS011;21680;52.400;16.920;2023-09-18T02:19:57;24.80;;;12.20;;
35576;SDS011;21680;52.400;16.920;2023-09-18T02:22:23;18.80;;;10.90;;
35576;SDS011;21680;52.400;16.920;2023-09-18T02:24:48;19.50;;;10.70;;
35576;SDS011;21680;52.400;16.920;2023-09-18T02:27:14;19.60;;;11.40;;
35576;SDS011;21680;52.400;16.920;2023-09-18T02:29:39;14.00;;;10.60;;
35576;SDS011;21680;52.400;16.920;2023-09-18T02:32:04;17.40;;;11.10;;
35576;SDS011;21680;52.400;16.920;2023-09-18T02:34:30;19.90;;;12.00;;
35576;SDS011;21680;52.400;16.920;2023-09-18T02:36:55;18.90;;;12.20;;
35576;SDS011;21680;52.400;16.920;2023-09-18T02:39:20;19.50;;;11.40;;
35576;SDS011;21680;52.400;16.920;2023-09-18T02:41:46;15.70;;;11.50;;
35576;SDS011;21680;52.400;16.920;2023-09-18T02:44:13;15.50;;;10.80;;
35576;SDS011;21680;52.400;16.920;2023-09-18T02:46:38;16.10;;;11.50;;
35576;SDS011;21680;52.400;16.920;2023-09-18T02:49:04;16.70;;;12.20;;
35576;SDS011;21680;52.400;16.920;2023-09-18T02:51:29;18.70;;;12.40;;
35576;SDS011;21680;52.400;16.920;2023-09-18T02:53:57;15.90;;;11.10;;
35576;SDS011;21680;52.400;16.920;2023-09-18T02:56:22;14.60;;;10.70;;
35576;SDS011;21680;52.400;16.920;2023-09-18T02:58:48;17.30;;;11.40;;
35576;SDS011;21680;52.400;16.920;2023-09-18T03:01:13;20.70;;;12.80;;
35576;SDS011;21680;52.400;16.920;2023-09-18T03:03:38;16.30;;;11.20;;
35576;SDS011;21680;52.400;16.920;2023-09-18T03:06:06;18.90;;;11.70;;
35576;SDS011;21680;52.400;16.920;2023-09-18T03:08:32;16.70;;;11.20;;
35576;SDS011;21680;52.400;16.920;2023-09-18T03:10:58;16.30;;;11.30;;
35576;SDS011;21680;52.400;16.920;2023-09-18T03:13:25;22.90;;;12.70;;
35576;SDS011;21680;52.400;16.920;2023-09-18T03:15:52;23.00;;;13.40;;
35576;SDS011;21680;52.400;16.920;2023-09-18T03:18:17;24.20;;;14.00;;
35576;SDS011;21680;52.400;16.920;2023-09-18T03:20:42;20.40;;;15.00;;
35576;SDS011;21680;52.400;16.920;2023-09-18T03:23:08;19.40;;;13.70;;
35576;SDS011;21680;52.400;16.920;2023-09-18T03:25:35;21.20;;;14.90;;
35576;SDS011;21680;52.400;16.920;2023-09-18T03:28:02;20.20;;;15.30;;
35576;SDS011;21680;52.400;16.920;2023-09-18T03:30:27;22.20;;;14.50;;
35576;SDS011;21680;52.400;16.920;2023-09-18T03:32:53;23.60;;;14.90;;
35576;SDS011;21680;52.400;16.920;2023-09-18T03:35:19;21.10;;;15.70;;
35576;SDS011;21680;52.400;16.920;2023-09-18T03:37:45;21.70;;;15.00;;
35576;SDS011;21680;52.400;16.920;2023-09-18T03:40:11;20.70;;;15.10;;
35576;SDS011;21680;52.400;16.920;2023-09-18T03:42:36;22.00;;;15.80;;
35576;SDS011;21680;52.400;16.920;2023-09-18T03:45:04;25.30;;;16.30;;
35576;SDS011;21680;52.400;16.920;2023-09-18T03:47:31;26.60;;;16.00;;
35576;SDS011;21680;52.400;16.920;2023-09-18T03:49:57;23.30;;;16.50;;
35576;SDS011;21680;52.400;16.920;2023-09-18T03:52:22;21.20;;;15.00;;
35576;SDS011;21680;52.400;16.920;2023-09-18T03:54:48;22.30;;;15.80;;
35576;SDS011;21680;52.400;16.920;2023-09-18T03:57:14;24.50;;;16.40;;
35576;SDS011;21680;52.400;16.920;2023-09-18T03:59:39;25.10;;;16.40;;
35576;SDS011;21680;52.400;16.920;2023-09-18T04:02:04;29.50;;;15.60;;
35576;SDS011;21680;52.400;16.920;2023-09-18T04:04:30;22.10;;;16.50;;
35576;SDS011;21680;52.400;16.920;2023-09-18T04:06:55;21.80;;;16.20;;
35576;SDS011;21680;52.400;16.920;2023-09-18T04:09:20;25.70;;;17.20;;
35576;SDS011;21680;52.400;16.920;2023-09-18T04:11:46;23.40;;;15.90;;
35576;SDS011;21680;52.400;16.920;2023-09-18T04:14:11;23.80;;;17.00;;
35576;SDS011;21680;52.400;16.920;2023-09-18T04:16:37;25.20;;;16.00;;
35576;SDS011;21680;52.400;16.920;2023-09-18T04:19:04;22.50;;;16.90;;
35576;SDS011;21680;52.400;16.920;2023-09-18T04:21:30;22.40;;;15.70;;
35576;SDS011;21680;52.400;16.920;2023-09-18T04:23:55;25.50;;;16.70;;
35576;SDS011;21680;52.400;16.920;2023-09-18T04:26:25;22.60;;;16.10;;
35576;SDS011;21680;52.400;16.920;2023-09-18T04:29:01;22.80;;;16.90;;
35576;SDS011;21680;52.400;16.920;2023-09-18T04:31:27;22.30;;;16.50;;
35576;SDS011;21680;52.400;16.920;2023-09-18T04:33:53;25.20;;;16.70;;
35576;SDS011;21680;52.400;16.920;2023-09-18T04:36:18;25.60;;;17.00;;
35576;SDS011;21680;52.400;16.920;2023-09-18T04:38:44;22.10;;;15.90;;
35576;SDS011;21680;52.400;16.920;2023-09-18T04:41:11;24.10;;;16.90;;
35576;SDS011;21680;52.400;16.920;2023-09-18T04:43:39;24.70;;;15.60;;
35576;SDS011;21680;52.400;16.920;2023-09-18T04:46:04;23.60;;;15.40;;
35576;SDS011;21680;52.400;16.920;2023-09-18T04:48:30;26.20;;;16.00;;
35576;SDS011;21680;52.400;16.920;2023-09-18T04:50:56;26.80;;;15.90;;
35576;SDS011;21680;52.400;16.920;2023-09-18T04:53:22;23.80;;;16.10;;
35576;SDS011;21680;52.400;16.920;2023-09-18T04:55:47;20.80;;;14.80;;
35576;SDS011;21680;52.400;16.920;2023-09-18T04:58:18;19.30;;;14.70;;
35576;SDS011;21680;52.400;16.920;2023-09-18T05:00:46;21.00;;;15.10;;
35576;SDS011;21680;52.400;16.920;2023-09-18T05:03:12;21.50;;;15.60;;
35576;SDS011;21680;52.400;16.920;2023-09-18T05:05:39;23.00;;;16.00;;
35576;SDS011;21680;52.400;16.920;2023-09-18T05:08:05;21.50;;;16.00;;
35576;SDS011;21680;52.400;16.920;2023-09-18T05:10:34;22.40;;;16.00;;
35576;SDS011;21680;52.400;16.920;2023-09-18T05:13:00;24.60;;;16.10;;
35576;SDS011;21680;52.400;16.920;2023-09-18T05:15:25;23.90;;;15.90;;
35576;SDS011;21680;52.400;16.920;2023-09-18T05:17:57;23.50;;;15.20;;
35576;SDS011;21680;52.400;16.920;2023-09-18T05:20:28;26.10;;;15.80;;
35576;SDS011;21680;52.400;16.920;2023-09-18T05:23:13;20.90;;;15.60;;
35576;SDS011;21680;52.400;16.920;2023-09-18T05:25:38;32.50;;;15.80;;
35576;SDS011;21680;52.400;16.920;2023-09-18T05:28:04;23.70;;;16.10;;
35576;SDS011;21680;52.400;16.920;2023-09-18T05:30:31;20.80;;;15.50;;
35576;SDS011;21680;52.400;16.920;2023-09-18T05:32:59;24.30;;;15.80;;
35576;SDS011;21680;52.400;16.920;2023-09-18T05:35:35;24.20;;;16.10;;
35576;SDS011;21680;52.400;16.920;2023-09-18T05:38:04;27.40;;;17.00;;
35576;SDS011;21680;52.400;16.920;2023-09-18T05:40:30;20.30;;;15.50;;
35576;SDS011;21680;52.400;16.920;2023-09-18T05:42:57;25.90;;;16.10;;
35576;SDS011;21680;52.400;16.920;2023-09-18T05:45:23;20.40;;;14.80;;
35576;SDS011;21680;52.400;16.920;2023-09-18T05:47:49;22.00;;;15.30;;
35576;SDS011;21680;52.400;16.920;2023-09-18T05:50:15;22.10;;;15.60;;
35576;SDS011;21680;52.400;16.920;2023-09-18T05:52:43;21.70;;;15.40;;
35576;SDS011;21680;52.400;16.920;2023-09-18T05:55:10;19.90;;;14.60;;
35576;SDS011;21680;52.400;16.920;2023-09-18T05:57:35;20.40;;;14.50;;
35576;SDS011;21680;52.400;16.920;2023-09-18T06:00:01;18.50;;;14.20;;
35576;SDS011;21680;52.400;16.920;2023-09-18T06:02:27;24.60;;;14.80;;
35576;SDS011;21680;52.400;16.920;2023-09-18T06:04:56;22.20;;;13.30;;
35576;SDS011;21680;52.400;16.920;2023-09-18T06:07:23;25.40;;;15.00;;
35576;SDS011;21680;52.400;16.920;2023-09-18T06:09:49;20.60;;;14.70;;
35576;SDS011;21680;52.400;16.920;2023-09-18T06:12:15;19.20;;;15.00;;
35576;SDS011;21680;52.400;16.920;2023-09-18T06:14:40;20.00;;;14.80;;
35576;SDS011;21680;52.400;16.920;2023-09-18T06:17:06;24.30;;;16.60;;
35576;SDS011;21680;52.400;16.920;2023-09-18T06:19:31;18.80;;;13.30;;
35576;SDS011;21680;52.400;16.920;2023-09-18T06:21:58;22.50;;;14.70;;
35576;SDS011;21680;52.400;16.920;2023-09-18T06:24:23;22.50;;;14.40;;
35576;SDS011;21680;52.400;16.920;2023-09-18T06:26:48;18.90;;;14.10;;
35576;SDS011;21680;52.400;16.920;2023-09-18T06:29:14;24.40;;;14.70;;
35576;SDS011;21680;52.400;16.920;2023-09-18T06:31:39;26.20;;;14.20;;
35576;SDS011;21680;52.400;16.920;2023-09-18T06:34:04;28.50;;;13.50;;
35576;SDS011;21680;52.400;16.920;2023-09-18T06:36:30;19.60;;;13.00;;
35576;SDS011;21680;52.400;16.920;2023-09-18T06:38:55;17.80;;;12.60;;
35576;SDS011;21680;52.400;16.920;2023-09-18T06:41:21;21.90;;;13.50;;
35576;SDS011;21680;52.400;16.920;2023-09-18T06:43:46;17.40;;;13.20;;
35576;SDS011;21680;52.400;16.920;2023-09-18T06:46:11;26.30;;;12.70;;
35576;SDS011;21680;52.400;16.920;2023-09-18T06:48:36;23.80;;;12.80;;
35576;SDS011;21680;52.400;16.920;2023-09-18T06:51:01;20.50;;;12.00;;
35576;SDS011;21680;52.400;16.920;2023-09-18T06:53:27;18.10;;;12.70;;
35576;SDS011;21680;52.400;16.920;2023-09-18T06:55:54;19.50;;;11.80;;
35576;SDS011;21680;52.400;16.920;2023-09-18T06:58:21;15.80;;;11.70;;
35576;SDS011;21680;52.400;16.920;2023-09-18T07:00:47;24.20;;;12.80;;
35576;SDS011;21680;52.400;16.920;2023-09-18T07:03:15;25.80;;;13.50;;
35576;SDS011;21680;52.400;16.920;2023-09-18T07:05:41;22.50;;;13.60;;
35576;SDS011;21680;52.400;16.920;2023-09-18T07:08:08;23.60;;;12.40;;
35576;SDS011;21680;52.400;16.920;2023-09-18T07:10:36;24.80;;;11.90;;
35576;SDS011;21680;52.400;16.920;2023-09-18T07:13:02;23.70;;;12.60;;
35576;SDS011;21680;52.400;16.920;2023-09-18T07:15:28;23.60;;;11.80;;
35576;SDS011;21680;52.400;16.920;2023-09-18T07:17:53;22.30;;;11.80;;
35576;SDS011;21680;52.400;16.920;2023-09-18T07:20:18;31.40;;;12.60;;
35576;SDS011;21680;52.400;16.920;2023-09-18T07:22:47;20.70;;;11.80;;
35576;SDS011;21680;52.400;16.920;2023-09-18T07:25:12;18.10;;;10.80;;
35576;SDS011;21680;52.400;16.920;2023-09-18T07:27:38;20.80;;;11.10;;
35576;SDS011;21680;52.400;16.920;2023-09-18T07:30:09;20.00;;;11.60;;
35576;SDS011;21680;52.400;16.920;2023-09-18T07:32:36;24.80;;;10.80;;
35576;SDS011;21680;52.400;16.920;2023-09-18T07:35:02;16.10;;;10.10;;
35576;SDS011;21680;52.400;16.920;2023-09-18T07:37:29;17.90;;;11.00;;
35576;SDS011;21680;52.400;16.920;2023-09-18T07:39:55;20.50;;;11.40;;
35576;SDS011;21680;52.400;16.920;2023-09-18T07:42:23;17.60;;;10.30;;
35576;SDS011;21680;52.400;16.920;2023-09-18T07:44:49;19.70;;;11.30;;
35576;SDS011;21680;52.400;16.920;2023-09-18T07:47:15;22.60;;;11.20;;
35576;SDS011;21680;52.400;16.920;2023-09-18T07:49:40;18.80;;;10.70;;
35576;SDS011;21680;52.400;16.920;2023-09-18T07:52:05;16.20;;;10.30;;
35576;SDS011;21680;52.400;16.920;2023-09-18T07:54:30;23.00;;;11.10;;
35576;SDS011;21680;52.400;16.920;2023-09-18T07:56:56;15.40;;;9.90;;
35576;SDS011;21680;52.400;16.920;2023-09-18T07:59:21;18.40;;;10.50;;
35576;SDS011;21680;52.400;16.920;2023-09-18T08:01:50;18.90;;;10.20;;
35576;SDS011;21680;52.400;16.920;2023-09-18T08:04:15;19.40;;;9.60;;
35576;SDS011;21680;52.400;16.920;2023-09-18T08:06:40;18.90;;;9.80;;
35576;SDS011;21680;52.400;16.920;2023-09-18T08:09:06;19.10;;;9.50;;
35576;SDS011;21680;52.400;16.920;2023-09-18T08:11:34;11.60;;;10.10;;
35576;SDS011;21680;52.400;16.920;2023-09-18T08:14:01;22.70;;;10.70;;
35576;SDS011;21680;52.400;16.920;2023-09-18T08:16:26;13.10;;;9.60;;
35576;SDS011;21680;52.400;16.920;2023-09-18T08:18:52;14.70;;;9.30;;
35576;SDS011;21680;52.400;16.920;2023-09-18T08:21:17;11.60;;;9.00;;
35576;SDS011;21680;52.400;16.920;2023-09-18T08:23:43;13.10;;;9.10;;
35576;SDS011;21680;52.400;16.920;2023-09-18T08:26:08;22.40;;;8.70;;
35576;SDS011;21680;52.400;16.920;2023-09-18T08:28:33;13.10;;;8.70;;
35576;SDS011;21680;52.400;16.920;2023-09-18T08:31:00;13.00;;;9.00;;
35576;SDS011;21680;52.400;16.920;2023-09-18T08:33:26;14.40;;;8.40;;
35576;SDS011;21680;52.400;16.920;2023-09-18T08:35:53;11.90;;;6.90;;
35576;SDS011;21680;52.400;16.920;2023-09-18T08:38:18;16.20;;;9.20;;
35576;SDS011;21680;52.400;16.920;2023-09-18T08:40:43;11.40;;;7.90;;
35576;SDS011;21680;52.400;16.920;2023-09-18T08:43:09;21.30;;;7.40;;
35576;SDS011;21680;52.400;16.920;2023-09-18T08:48:11;16.50;;;7.60;;
35576;SDS011;21680;52.400;16.920;2023-09-18T08:50:38;13.80;;;6.70;;
35576;SDS011;21680;52.400;16.920;2023-09-18T08:53:05;12.70;;;7.50;;
35576;SDS011;21680;52.400;16.920;2023-09-18T08:55:31;11.40;;;6.20;;
35576;SDS011;21680;52.400;16.920;2023-09-18T08:57:58;15.80;;;6.70;;
35576;SDS011;21680;52.400;16.920;2023-09-18T09:00:25;10.30;;;8.00;;
35576;SDS011;21680;52.400;16.920;2023-09-18T09:02:51;10.90;;;6.70;;
35576;SDS011;21680;52.400;16.920;2023-09-18T09:05:19;17.50;;;6.40;;
35576;SDS011;21680;52.400;16.920;2023-09-18T09:07:45;12.60;;;7.90;;
35576;SDS011;21680;52.400;16.920;2023-09-18T09:10:10;8.90;;;6.50;;
35576;SDS011;21680;52.400;16.920;2023-09-18T09:12:49;11.00;;;7.80;;
35576;SDS011;21680;52.400;16.920;2023-09-18T09:15:29;15.40;;;7.20;;
35576;SDS011;21680;52.400;16.920;2023-09-18T09:18:02;16.80;;;8.00;;
35576;SDS011;21680;52.400;16.920;2023-09-18T09:20:31;10.70;;;7.20;;
35576;SDS011;21680;52.400;16.920;2023-09-18T09:23:01;14.70;;;7.30;;
35576;SDS011;21680;52.400;16.920;2023-09-18T09:25:28;15.10;;;7.10;;
35576;SDS011;21680;52.400;16.920;2023-09-18T09:27:57;15.00;;;7.60;;
35576;SDS011;21680;52.400;16.920;2023-09-18T09:30:24;16.40;;;7.20;;
35576;SDS011;21680;52.400;16.920;2023-09-18T09:32:53;12.80;;;6.40;;
35576;SDS011;21680;52.400;16.920;2023-09-18T09:37:49;17.80;;;7.30;;
35576;SDS011;21680;52.400;16.920;2023-09-18T09:40:16;11.20;;;6.60;;
35576;SDS011;21680;52.400;16.920;2023-09-18T09:42:44;13.10;;;7.10;;
35576;SDS011;21680;52.400;16.920;2023-09-18T09:45:12;10.20;;;6.60;;
35576;SDS011;21680;52.400;16.920;2023-09-18T09:47:39;11.50;;;7.00;;
35576;SDS011;21680;52.400;16.920;2023-09-18T09:50:06;9.60;;;6.30;;
35576;SDS011;21680;52.400;16.920;2023-09-18T09:52:44;7.60;;;6.40;;
35576;SDS011;21680;52.400;16.920;2023-09-18T09:55:17;7.20;;;6.00;;
35576;SDS011;21680;52.400;16.920;2023-09-18T09:57:51;10.80;;;6.60;;
35576;SDS011;21680;52.400;16.920;2023-09-18T10:00:18;11.50;;;6.50;;
35576;SDS011;21680;52.400;16.920;2023-09-18T10:02:55;8.60;;;6.00;;
35576;SDS011;21680;52.400;16.920;2023-09-18T10:05:24;11.60;;;7.00;;
35576;SDS011;21680;52.400;16.920;2023-09-18T10:07:53;11.10;;;6.90;;
35576;SDS011;21680;52.400;16.920;2023-09-18T10:10:23;13.40;;;6.60;;
35576;SDS011;21680;52.400;16.920;2023-09-18T10:12:51;11.50;;;6.60;;
35576;SDS011;21680;52.400;16.920;2023-09-18T10:15:20;20.60;;;6.60;;
35576;SDS011;21680;52.400;16.920;2023-09-18T10:17:48;13.90;;;6.60;;
35576;SDS011;21680;52.400;16.920;2023-09-18T10:20:21;9.20;;;5.90;;
35576;SDS011;21680;52.400;16.920;2023-09-18T10:22:56;9.70;;;6.10;;
35576;SDS011;21680;52.400;16.920;2023-09-18T10:25:25;20.40;;;6.50;;
35576;SDS011;21680;52.400;16.920;2023-09-18T10:27:54;8.30;;;5.90;;
35576;SDS011;21680;52.400;16.920;2023-09-18T10:30:26;11.40;;;6.30;;
35576;SDS011;21680;52.400;16.920;2023-09-18T10:32:53;20.10;;;6.50;;
35576;SDS011;21680;52.400;16.920;2023-09-18T10:35:19;20.30;;;6.60;;
35576;SDS011;21680;52.400;16.920;2023-09-18T10:37:46;10.90;;;5.60;;
35576;SDS011;21680;52.400;16.920;2023-09-18T10:40:13;9.60;;;6.20;;
35576;SDS011;21680;52.400;16.920;2023-09-18T10:42:40;9.50;;;6.00;;
35576;SDS011;21680;52.400;16.920;2023-09-18T10:45:10;9.80;;;5.90;;
35576;SDS011;21680;52.400;16.920;2023-09-18T10:47:37;6.70;;;5.20;;
35576;SDS011;21680;52.400;16.920;2023-09-18T10:50:05;10.30;;;5.50;;
35576;SDS011;21680;52.400;16.920;2023-09-18T10:52:35;8.10;;;5.60;;
35576;SDS011;21680;52.400;16.920;2023-09-18T10:55:10;14.30;;;5.40;;
35576;SDS011;21680;52.400;16.920;2023-09-18T10:57:37;14.80;;;5.90;;
35576;SDS011;21680;52.400;16.920;2023-09-18T11:00:04;10.00;;;5.90;;
35576;SDS011;21680;52.400;16.920;2023-09-18T11:02:39;7.50;;;5.50;;
35576;SDS011;21680;52.400;16.920;2023-09-18T11:05:05;10.70;;;5.50;;
35576;SDS011;21680;52.400;16.920;2023-09-18T11:07:31;10.90;;;4.90;;
35576;SDS011;21680;52.400;16.920;2023-09-18T11:09:56;13.30;;;5.70;;
35576;SDS011;21680;52.400;16.920;2023-09-18T11:12:22;9.40;;;5.50;;
35576;SDS011;21680;52.400;16.920;2023-09-18T11:15:08;7.80;;;4.00;;
35576;SDS011;21680;52.400;16.920;2023-09-18T11:17:38;7.90;;;4.10;;
35576;SDS011;21680;52.400;16.920;2023-09-18T11:20:18;9.90;;;4.70;;
35576;SDS011;21680;52.400;16.920;2023-09-18T11:28:23;5.60;;;4.60;;
35576;SDS011;21680;52.400;16.920;2023-09-18T11:30:51;11.50;;;4.90;;
35576;SDS011;21680;52.400;16.920;2023-09-18T11:33:30;10.30;;;4.90;;
35576;SDS011;21680;52.400;16.920;2023-09-18T11:36:12;14.40;;;5.30;;
35576;SDS011;21680;52.400;16.920;2023-09-18T11:38:54;6.80;;;4.90;;
35576;SDS011;21680;52.400;16.920;2023-09-18T11:41:23;6.00;;;5.30;;
35576;SDS011;21680;52.400;16.920;2023-09-18T11:46:45;9.90;;;5.20;;
35576;SDS011;21680;52.400;16.920;2023-09-18T11:49:13;10.00;;;5.10;;
35576;SDS011;21680;52.400;16.920;2023-09-18T11:51:41;10.20;;;4.70;;
35576;SDS011;21680;52.400;16.920;2023-09-18T11:54:07;7.80;;;5.50;;
35576;SDS011;21680;52.400;16.920;2023-09-18T11:56:34;6.50;;;4.80;;
35576;SDS011;21680;52.400;16.920;2023-09-18T11:59:00;6.60;;;5.10;;
35576;SDS011;21680;52.400;16.920;2023-09-18T12:01:29;7.90;;;5.00;;
35576;SDS011;21680;52.400;16.920;2023-09-18T12:04:02;10.60;;;4.80;;
35576;SDS011;21680;52.400;16.920;2023-09-18T12:06:37;5.50;;;4.40;;
35576;SDS011;21680;52.400;16.920;2023-09-18T12:09:05;9.60;;;4.60;;
35576;SDS011;21680;52.400;16.920;2023-09-18T12:11:32;7.40;;;4.20;;
35576;SDS011;21680;52.400;16.920;2023-09-18T12:13:59;11.50;;;5.10;;
35576;SDS011;21680;52.400;16.920;2023-09-18T12:16:25;9.60;;;4.80;;
35576;SDS011;21680;52.400;16.920;2023-09-18T12:18:50;6.50;;;4.20;;
35576;SDS011;21680;52.400;16.920;2023-09-18T12:21:16;6.60;;;3.70;;
35576;SDS011;21680;52.400;16.920;2023-09-18T12:23:45;11.40;;;4.30;;
35576;SDS011;21680;52.400;16.920;2023-09-18T12:26:12;4.30;;;3.90;;
35576;SDS011;21680;52.400;16.920;2023-09-18T12:28:41;10.90;;;4.70;;
35576;SDS011;21680;52.400;16.920;2023-09-18T12:31:11;5.50;;;4.00;;
35576;SDS011;21680;52.400;16.920;2023-09-18T12:33:38;5.00;;;4.20;;
35576;SDS011;21680;52.400;16.920;2023-09-18T12:36:04;9.50;;;4.40;;
35576;SDS011;21680;52.400;16.920;2023-09-18T12:38:31;4.90;;;3.80;;
35576;SDS011;21680;52.400;16.920;2023-09-18T12:40:57;9.70;;;4.00;;
35576;SDS011;21680;52.400;16.920;2023-09-18T12:43:32;8.80;;;4.50;;
35576;SDS011;21680;52.400;16.920;2023-09-18T12:46:08;12.90;;;4.60;;
35576;SDS011;21680;52.400;16.920;2023-09-18T12:48:40;6.60;;;4.00;;
35576;SDS011;21680;52.400;16.920;2023-09-18T12:51:10;8.90;;;4.60;;
35576;SDS011;21680;52.400;16.920;2023-09-18T12:53:36;10.70;;;4.40;;
35576;SDS011;21680;52.400;16.920;2023-09-18T12:56:09;10.50;;;4.60;;
35576;SDS011;21680;52.400;16.920;2023-09-18T12:58:37;10.00;;;4.90;;
35576;SDS011;21680;52.400;16.920;2023-09-18T13:01:04;8.10;;;4.10;;
35576;SDS011;21680;52.400;16.920;2023-09-18T13:03:52;7.50;;;4.00;;
35576;SDS011;21680;52.400;16.920;2023-09-18T13:06:20;10.30;;;4.50;;
35576;SDS011;21680;52.400;16.920;2023-09-18T13:08:47;10.60;;;4.90;;
35576;SDS011;21680;52.400;16.920;2023-09-18T13:11:14;9.60;;;4.70;;
35576;SDS011;21680;52.400;16.920;2023-09-18T13:13:41;14.20;;;4.60;;
35576;SDS011;21680;52.400;16.920;2023-09-18T13:16:08;6.90;;;4.60;;
35576;SDS011;21680;52.400;16.920;2023-09-18T13:18:36;6.40;;;4.50;;
35576;SDS011;21680;52.400;16.920;2023-09-18T13:21:08;10.80;;;4.80;;
35576;SDS011;21680;52.400;16.920;2023-09-18T13:23:36;5.90;;;4.50;;
35576;SDS011;21680;52.400;16.920;2023-09-18T13:26:02;9.40;;;5.00;;
35576;SDS011;21680;52.400;16.920;2023-09-18T13:28:29;15.70;;;6.00;;
35576;SDS011;21680;52.400;16.920;2023-09-18T13:30:58;14.30;;;5.50;;
35576;SDS011;21680;52.400;16.920;2023-09-18T13:33:25;15.00;;;5.60;;
35576;SDS011;21680;52.400;16.920;2023-09-18T13:35:52;12.30;;;5.40;;
35576;SDS011;21680;52.400;16.920;2023-09-18T13:38:18;9.80;;;5.40;;
35576;SDS011;21680;52.400;16.920;2023-09-18T13:40:46;10.00;;;5.00;;
35576;SDS011;21680;52.400;16.920;2023-09-18T13:43:12;12.10;;;5.40;;
35576;SDS011;21680;52.400;16.920;2023-09-18T13:45:40;8.20;;;5.70;;
35576;SDS011;21680;52.400;16.920;2023-09-18T13:48:07;11.10;;;5.80;;
35576;SDS011;21680;52.400;16.920;2023-09-18T13:50:33;10.40;;;5.90;;
35576;SDS011;21680;52.400;16.920;2023-09-18T13:53:00;11.40;;;5.80;;
35576;SDS011;21680;52.400;16.920;2023-09-18T13:55:26;9.90;;;5.80;;
35576;SDS011;21680;52.400;16.920;2023-09-18T13:57:53;9.50;;;5.80;;
35576;SDS011;21680;52.400;16.920;2023-09-18T14:00:18;7.70;;;5.90;;
35576;SDS011;21680;52.400;16.920;2023-09-18T14:02:43;12.20;;;5.80;;
35576;SDS011;21680;52.400;16.920;2023-09-18T14:05:09;12.90;;;6.40;;
35576;SDS011;21680;52.400;16.920;2023-09-18T14:07:36;8.50;;;5.80;;
35576;SDS011;21680;52.400;16.920;2023-09-18T14:10:06;13.60;;;6.30;;
35576;SDS011;21680;52.400;16.920;2023-09-18T14:12:33;11.40;;;6.00;;
35576;SDS011;21680;52.400;16.920;2023-09-18T14:14:58;10.60;;;6.40;;
35576;SDS011;21680;52.400;16.920;2023-09-18T14:17:24;8.10;;;6.20;;
35576;SDS011;21680;52.400;16.920;2023-09-18T14:19:50;10.50;;;6.50;;
35576;SDS011;21680;52.400;16.920;2023-09-18T14:22:18;17.20;;;6.50;;
35576;SDS011;21680;52.400;16.920;2023-09-18T14:24:44;12.90;;;6.50;;
35576;SDS011;21680;52.400;16.920;2023-09-18T14:27:09;12.60;;;6.30;;
35576;SDS011;21680;52.400;16.920;2023-09-18T14:29:37;8.90;;;6.40;;
35576;SDS011;21680;52.400;16.920;2023-09-18T14:32:03;10.00;;;6.60;;